sensor_id;sensor_type;location;lat;lon;timestamp;P1;P2;P0
36897;PMS5003;22827;53.108;-6.738;2023-09-07T00:02:08;3;3;
36897;PMS5003;22827;53.108;-6.738;2023-09-07T00:04:34;2;2;
36897;PMS5003;22827;53.108;-6.738;2023-09-07T00:07:01;4;3;
36897;PMS5003;22827;53.108;-6.738;2023-09-07T00:09:28;4;3;
36897;PMS5003;22827;53.108;-6.738;2023-09-07T00:11:55;5;3;
36897;PMS5003;22827;53.108;-6.738;2023-09-07T00:14:22;3;3;
36897;PMS5003;22827;53.108;-6.738;2023-09-07T00:16:48;3;3;
36897;PMS5003;22827;53.108;-6.738;2023-09-07T00:19:15;2;2;
36897;PMS5003;22827;53.108;-6.738;2023-09-07T00:21:42;3;2;
36897;PMS5003;22827;53.108;-6.738;2023-09-07T00:24:09;3;1;
36897;PMS5003;22827;53.108;-6.738;2023-09-07T00:26:36;2;2;
36897;PMS5003;22827;53.108;-6.738;2023-09-07T00:29:03;3;3;
36897;PMS5003;22827;53.108;-6.738;2023-09-07T00:31:29;4;4;
36897;PMS5003;22827;53.108;-6.738;2023-09-07T00:33:56;3;3;
36897;PMS5003;22827;53.108;-6.738;2023-09-07T00:36:23;4;3;
36897;PMS5003;22827;53.108;-6.738;2023-09-07T00:38:50;3;3;
36897;PMS5003;22827;53.108;-6.738;2023-09-07T00:41:17;4;4;
36897;PMS5003;22827;53.108;-6.738;2023-09-07T00:43:43;2;2;
36897;PMS5003;22827;53.108;-6.738;2023-09-07T00:46:10;6;3;
36897;PMS5003;22827;53.108;-6.738;2023-09-07T00:48:38;4;4;
36897;PMS5003;22827;53.108;-6.738;2023-09-07T00:51:06;3;3;
36897;PMS5003;22827;53.108;-6.738;2023-09-07T00:53:33;3;2;
36897;PMS5003;22827;53.108;-6.738;2023-09-07T00:56:01;4;4;
36897;PMS5003;22827;53.108;-6.738;2023-09-07T00:58:29;3;2;
36897;PMS5003;22827;53.108;-6.738;2023-09-07T01:00:55;3;3;
36897;PMS5003;22827;53.108;-6.738;2023-09-07T01:03:23;4;4;
36897;PMS5003;22827;53.108;-6.738;2023-09-07T01:05:52;3;3;
36897;PMS5003;22827;53.108;-6.738;2023-09-07T01:08:25;5;4;
36897;PMS5003;22827;53.108;-6.738;2023-09-07T01:10:58;3;3;
36897;PMS5003;22827;53.108;-6.738;2023-09-07T01:13:25;3;3;
36897;PMS5003;22827;53.108;-6.738;2023-09-07T01:15:52;3;3;
36897;PMS5003;22827;53.108;-6.738;2023-09-07T01:18:19;1;1;
36897;PMS5003;22827;53.108;-6.738;2023-09-07T01:20:47;3;3;
36897;PMS5003;22827;53.108;-6.738;2023-09-07T01:23:15;3;2;
36897;PMS5003;22827;53.108;-6.738;2023-09-07T01:25:43;3;3;
36897;PMS5003;22827;53.108;-6.738;2023-09-07T01:28:10;3;3;
36897;PMS5003;22827;53.108;-6.738;2023-09-07T01:30:39;2;2;
36897;PMS5003;22827;53.108;-6.738;2023-09-07T01:33:06;5;5;
36897;PMS5003;22827;53.108;-6.738;2023-09-07T01:35:33;5;5;
36897;PMS5003;22827;53.108;-6.738;2023-09-07T01:38:02;5;4;
36897;PMS5003;22827;53.108;-6.738;2023-09-07T01:40:29;7;5;
36897;PMS5003;22827;53.108;-6.738;2023-09-07T01:42:56;6;4;
36897;PMS5003;22827;53.108;-6.738;2023-09-07T01:45:23;6;5;
36897;PMS5003;22827;53.108;-6.738;2023-09-07T01:47:50;9;4;
36897;PMS5003;22827;53.108;-6.738;2023-09-07T01:50:17;4;4;
36897;PMS5003;22827;53.108;-6.738;2023-09-07T01:52:45;6;4;
36897;PMS5003;22827;53.108;-6.738;2023-09-07T01:55:13;6;6;
36897;PMS5003;22827;53.108;-6.738;2023-09-07T01:57:40;7;4;
36897;PMS5003;22827;53.108;-6.738;2023-09-07T02:00:07;4;3;
36897;PMS5003;22827;53.108;-6.738;2023-09-07T02:02:35;7;5;
36897;PMS5003;22827;53.108;-6.738;2023-09-07T02:05:02;7;5;
36897;PMS5003;22827;53.108;-6.738;2023-09-07T02:07:29;4;4;
36897;PMS5003;22827;53.108;-6.738;2023-09-07T02:09:56;4;4;
36897;PMS5003;22827;53.108;-6.738;2023-09-07T02:12:23;4;4;
36897;PMS5003;22827;53.108;-6.738;2023-09-07T02:14:50;5;4;
36897;PMS5003;22827;53.108;-6.738;2023-09-07T02:17:17;4;4;
36897;PMS5003;22827;53.108;-6.738;2023-09-07T02:19:44;4;2;
36897;PMS5003;22827;53.108;-6.738;2023-09-07T02:22:11;5;5;
36897;PMS5003;22827;53.108;-6.738;2023-09-07T02:24:38;3;2;
36897;PMS5003;22827;53.108;-6.738;2023-09-07T02:27:05;4;3;
36897;PMS5003;22827;53.108;-6.738;2023-09-07T02:29:32;3;3;
36897;PMS5003;22827;53.108;-6.738;2023-09-07T02:31:58;3;3;
36897;PMS5003;22827;53.108;-6.738;2023-09-07T02:34:25;3;3;
36897;PMS5003;22827;53.108;-6.738;2023-09-07T02:36:52;3;3;
36897;PMS5003;22827;53.108;-6.738;2023-09-07T02:39:19;4;4;
36897;PMS5003;22827;53.108;-6.738;2023-09-07T02:41:46;3;3;
36897;PMS5003;22827;53.108;-6.738;2023-09-07T02:44:13;5;5;
36897;PMS5003;22827;53.108;-6.738;2023-09-07T02:46:39;6;4;
36897;PMS5003;22827;53.108;-6.738;2023-09-07T02:49:06;5;5;
36897;PMS5003;22827;53.108;-6.738;2023-09-07T02:51:33;3;3;
36897;PMS5003;22827;53.108;-6.738;2023-09-07T02:54:00;3;2;
36897;PMS5003;22827;53.108;-6.738;2023-09-07T02:56:28;5;4;
36897;PMS5003;22827;53.108;-6.738;2023-09-07T02:58:55;4;3;
36897;PMS5003;22827;53.108;-6.738;2023-09-07T03:01:22;6;4;
36897;PMS5003;22827;53.108;-6.738;2023-09-07T03:03:49;3;3;
36897;PMS5003;22827;53.108;-6.738;2023-09-07T03:06:16;4;4;
36897;PMS5003;22827;53.108;-6.738;2023-09-07T03:08:43;4;4;
36897;PMS5003;22827;53.108;-6.738;2023-09-07T03:11:10;4;4;
36897;PMS5003;22827;53.108;-6.738;2023-09-07T03:13:38;6;5;
36897;PMS5003;22827;53.108;-6.738;2023-09-07T03:16:05;4;4;
36897;PMS5003;22827;53.108;-6.738;2023-09-07T03:18:32;6;5;
36897;PMS5003;22827;53.108;-6.738;2023-09-07T03:20:59;5;5;
36897;PMS5003;22827;53.108;-6.738;2023-09-07T03:23:27;6;6;
36897;PMS5003;22827;53.108;-6.738;2023-09-07T03:25:55;6;5;
36897;PMS5003;22827;53.108;-6.738;2023-09-07T03:28:21;4;4;
36897;PMS5003;22827;53.108;-6.738;2023-09-07T03:30:48;4;3;
36897;PMS5003;22827;53.108;-6.738;2023-09-07T03:33:15;2;2;
36897;PMS5003;22827;53.108;-6.738;2023-09-07T03:35:42;4;4;
36897;PMS5003;22827;53.108;-6.738;2023-09-07T03:38:09;6;5;
36897;PMS5003;22827;53.108;-6.738;2023-09-07T03:40:35;6;4;
36897;PMS5003;22827;53.108;-6.738;2023-09-07T03:43:03;8;6;
36897;PMS5003;22827;53.108;-6.738;2023-09-07T03:45:30;8;7;
36897;PMS5003;22827;53.108;-6.738;2023-09-07T03:47:57;7;6;
36897;PMS5003;22827;53.108;-6.738;2023-09-07T03:50:24;8;8;
36897;PMS5003;22827;53.108;-6.738;2023-09-07T03:52:51;8;8;
36897;PMS5003;22827;53.108;-6.738;2023-09-07T03:55:18;6;6;
36897;PMS5003;22827;53.108;-6.738;2023-09-07T03:57:45;7;5;
36897;PMS5003;22827;53.108;-6.738;2023-09-07T04:00:13;8;8;
36897;PMS5003;22827;53.108;-6.738;2023-09-07T04:02:40;4;4;
36897;PMS5003;22827;53.108;-6.738;2023-09-07T04:05:09;6;5;
36897;PMS5003;22827;53.108;-6.738;2023-09-07T04:07:36;5;5;
36897;PMS5003;22827;53.108;-6.738;2023-09-07T04:10:04;6;5;
36897;PMS5003;22827;53.108;-6.738;2023-09-07T04:12:31;5;4;
36897;PMS5003;22827;53.108;-6.738;2023-09-07T04:14:58;7;7;
36897;PMS5003;22827;53.108;-6.738;2023-09-07T04:17:25;5;5;
36897;PMS5003;22827;53.108;-6.738;2023-09-07T04:19:52;5;5;
36897;PMS5003;22827;53.108;-6.738;2023-09-07T04:22:19;6;4;
36897;PMS5003;22827;53.108;-6.738;2023-09-07T04:24:47;5;5;
36897;PMS5003;22827;53.108;-6.738;2023-09-07T04:27:14;6;6;
36897;PMS5003;22827;53.108;-6.738;2023-09-07T04:29:40;5;5;
36897;PMS5003;22827;53.108;-6.738;2023-09-07T04:32:07;4;4;
36897;PMS5003;22827;53.108;-6.738;2023-09-07T04:34:34;4;4;
36897;PMS5003;22827;53.108;-6.738;2023-09-07T04:37:01;3;3;
36897;PMS5003;22827;53.108;-6.738;2023-09-07T04:39:28;5;4;
36897;PMS5003;22827;53.108;-6.738;2023-09-07T04:41:55;3;3;
36897;PMS5003;22827;53.108;-6.738;2023-09-07T04:44:21;5;4;
36897;PMS5003;22827;53.108;-6.738;2023-09-07T04:46:48;3;3;
36897;PMS5003;22827;53.108;-6.738;2023-09-07T04:49:15;4;4;
36897;PMS5003;22827;53.108;-6.738;2023-09-07T04:51:42;4;4;
36897;PMS5003;22827;53.108;-6.738;2023-09-07T04:54:09;6;4;
36897;PMS5003;22827;53.108;-6.738;2023-09-07T04:56:36;5;4;
36897;PMS5003;22827;53.108;-6.738;2023-09-07T04:59:03;3;3;
36897;PMS5003;22827;53.108;-6.738;2023-09-07T05:01:30;6;4;
36897;PMS5003;22827;53.108;-6.738;2023-09-07T05:03:57;4;4;
36897;PMS5003;22827;53.108;-6.738;2023-09-07T05:06:24;5;5;
36897;PMS5003;22827;53.108;-6.738;2023-09-07T05:08:50;3;3;
36897;PMS5003;22827;53.108;-6.738;2023-09-07T05:11:17;5;4;
36897;PMS5003;22827;53.108;-6.738;2023-09-07T05:13:44;3;3;
36897;PMS5003;22827;53.108;-6.738;2023-09-07T05:16:11;4;4;
36897;PMS5003;22827;53.108;-6.738;2023-09-07T05:18:38;3;3;
36897;PMS5003;22827;53.108;-6.738;2023-09-07T05:21:13;4;4;
36897;PMS5003;22827;53.108;-6.738;2023-09-07T05:23:41;4;4;
36897;PMS5003;22827;53.108;-6.738;2023-09-07T05:26:08;3;3;
36897;PMS5003;22827;53.108;-6.738;2023-09-07T05:28:36;4;3;
36897;PMS5003;22827;53.108;-6.738;2023-09-07T05:31:03;4;4;
36897;PMS5003;22827;53.108;-6.738;2023-09-07T05:33:30;3;2;
36897;PMS5003;22827;53.108;-6.738;2023-09-07T05:35:56;6;3;
36897;PMS5003;22827;53.108;-6.738;2023-09-07T05:38:24;4;4;
36897;PMS5003;22827;53.108;-6.738;2023-09-07T05:40:51;6;6;
36897;PMS5003;22827;53.108;-6.738;2023-09-07T05:43:18;6;5;
36897;PMS5003;22827;53.108;-6.738;2023-09-07T05:45:45;4;4;
36897;PMS5003;22827;53.108;-6.738;2023-09-07T05:48:12;5;4;
36897;PMS5003;22827;53.108;-6.738;2023-09-07T05:50:40;5;4;
36897;PMS5003;22827;53.108;-6.738;2023-09-07T05:53:07;4;3;
36897;PMS5003;22827;53.108;-6.738;2023-09-07T05:55:35;5;4;
36897;PMS5003;22827;53.108;-6.738;2023-09-07T05:58:03;3;3;
36897;PMS5003;22827;53.108;-6.738;2023-09-07T06:00:32;4;4;
36897;PMS5003;22827;53.108;-6.738;2023-09-07T06:03:01;6;5;
36897;PMS5003;22827;53.108;-6.738;2023-09-07T06:05:28;4;3;
36897;PMS5003;22827;53.108;-6.738;2023-09-07T06:07:55;4;4;
36897;PMS5003;22827;53.108;-6.738;2023-09-07T06:10:22;4;3;
36897;PMS5003;22827;53.108;-6.738;2023-09-07T06:12:50;4;4;
36897;PMS5003;22827;53.108;-6.738;2023-09-07T06:15:17;4;4;
36897;PMS5003;22827;53.108;-6.738;2023-09-07T06:17:43;4;4;
36897;PMS5003;22827;53.108;-6.738;2023-09-07T06:20:10;4;4;
36897;PMS5003;22827;53.108;-6.738;2023-09-07T06:22:38;4;3;
36897;PMS5003;22827;53.108;-6.738;2023-09-07T06:25:05;5;4;
36897;PMS5003;22827;53.108;-6.738;2023-09-07T06:27:32;3;3;
36897;PMS5003;22827;53.108;-6.738;2023-09-07T06:30:00;2;2;
36897;PMS5003;22827;53.108;-6.738;2023-09-07T06:32:27;4;4;
36897;PMS5003;22827;53.108;-6.738;2023-09-07T06:34:54;4;3;
36897;PMS5003;22827;53.108;-6.738;2023-09-07T06:37:20;3;3;
36897;PMS5003;22827;53.108;-6.738;2023-09-07T06:39:47;3;3;
36897;PMS5003;22827;53.108;-6.738;2023-09-07T06:42:14;4;2;
36897;PMS5003;22827;53.108;-6.738;2023-09-07T06:44:41;4;3;
36897;PMS5003;22827;53.108;-6.738;2023-09-07T06:47:08;9;9;
36897;PMS5003;22827;53.108;-6.738;2023-09-07T06:49:35;18;15;
36897;PMS5003;22827;53.108;-6.738;2023-09-07T06:52:04;8;8;
36897;PMS5003;22827;53.108;-6.738;2023-09-07T06:54:31;5;5;
36897;PMS5003;22827;53.108;-6.738;2023-09-07T06:56:58;5;4;
36897;PMS5003;22827;53.108;-6.738;2023-09-07T06:59:25;9;6;
36897;PMS5003;22827;53.108;-6.738;2023-09-07T07:01:52;8;7;
36897;PMS5003;22827;53.108;-6.738;2023-09-07T07:04:18;7;4;
36897;PMS5003;22827;53.108;-6.738;2023-09-07T07:06:45;6;5;
36897;PMS5003;22827;53.108;-6.738;2023-09-07T07:09:12;7;7;
36897;PMS5003;22827;53.108;-6.738;2023-09-07T07:11:39;13;13;
36897;PMS5003;22827;53.108;-6.738;2023-09-07T07:14:06;9;9;
36897;PMS5003;22827;53.108;-6.738;2023-09-07T07:16:32;9;9;
36897;PMS5003;22827;53.108;-6.738;2023-09-07T07:18:59;7;7;
36897;PMS5003;22827;53.108;-6.738;2023-09-07T07:21:26;3;2;
36897;PMS5003;22827;53.108;-6.738;2023-09-07T07:23:53;4;4;
36897;PMS5003;22827;53.108;-6.738;2023-09-07T07:26:20;5;4;
36897;PMS5003;22827;53.108;-6.738;2023-09-07T07:28:46;3;3;
36897;PMS5003;22827;53.108;-6.738;2023-09-07T07:31:13;2;2;
36897;PMS5003;22827;53.108;-6.738;2023-09-07T07:33:40;5;4;
36897;PMS5003;22827;53.108;-6.738;2023-09-07T07:36:07;5;5;
36897;PMS5003;22827;53.108;-6.738;2023-09-07T07:38:33;7;3;
36897;PMS5003;22827;53.108;-6.738;2023-09-07T07:41:00;5;5;
36897;PMS5003;22827;53.108;-6.738;2023-09-07T07:43:27;6;5;
36897;PMS5003;22827;53.108;-6.738;2023-09-07T07:45:54;4;3;
36897;PMS5003;22827;53.108;-6.738;2023-09-07T07:48:21;4;3;
36897;PMS5003;22827;53.108;-6.738;2023-09-07T07:50:47;5;5;
36897;PMS5003;22827;53.108;-6.738;2023-09-07T07:53:14;4;4;
36897;PMS5003;22827;53.108;-6.738;2023-09-07T07:55:41;5;4;
36897;PMS5003;22827;53.108;-6.738;2023-09-07T07:58:08;5;4;
36897;PMS5003;22827;53.108;-6.738;2023-09-07T08:00:36;5;3;
36897;PMS5003;22827;53.108;-6.738;2023-09-07T08:03:05;5;5;
36897;PMS5003;22827;53.108;-6.738;2023-09-07T08:05:31;5;5;
36897;PMS5003;22827;53.108;-6.738;2023-09-07T08:07:59;5;5;
36897;PMS5003;22827;53.108;-6.738;2023-09-07T08:10:26;4;4;
36897;PMS5003;22827;53.108;-6.738;2023-09-07T08:12:53;9;5;
36897;PMS5003;22827;53.108;-6.738;2023-09-07T08:15:21;5;3;
36897;PMS5003;22827;53.108;-6.738;2023-09-07T08:17:48;5;3;
36897;PMS5003;22827;53.108;-6.738;2023-09-07T08:20:15;4;4;
36897;PMS5003;22827;53.108;-6.738;2023-09-07T08:22:43;5;4;
36897;PMS5003;22827;53.108;-6.738;2023-09-07T08:25:10;4;4;
36897;PMS5003;22827;53.108;-6.738;2023-09-07T08:27:38;14;14;
36897;PMS5003;22827;53.108;-6.738;2023-09-07T08:30:06;7;6;
36897;PMS5003;22827;53.108;-6.738;2023-09-07T08:32:34;4;4;
36897;PMS5003;22827;53.108;-6.738;2023-09-07T08:35:02;5;5;
36897;PMS5003;22827;53.108;-6.738;2023-09-07T08:37:29;6;6;
36897;PMS5003;22827;53.108;-6.738;2023-09-07T08:39:56;4;3;
36897;PMS5003;22827;53.108;-6.738;2023-09-07T08:42:22;5;4;
36897;PMS5003;22827;53.108;-6.738;2023-09-07T08:44:50;9;6;
36897;PMS5003;22827;53.108;-6.738;2023-09-07T08:47:20;8;4;
36897;PMS5003;22827;53.108;-6.738;2023-09-07T08:49:48;5;5;
36897;PMS5003;22827;53.108;-6.738;2023-09-07T08:52:15;6;5;
36897;PMS5003;22827;53.108;-6.738;2023-09-07T08:54:43;8;5;
36897;PMS5003;22827;53.108;-6.738;2023-09-07T08:57:13;8;5;
36897;PMS5003;22827;53.108;-6.738;2023-09-07T08:59:41;9;6;
36897;PMS5003;22827;53.108;-6.738;2023-09-07T09:02:09;8;6;
36897;PMS5003;22827;53.108;-6.738;2023-09-07T09:04:36;6;5;
36897;PMS5003;22827;53.108;-6.738;2023-09-07T09:07:04;9;7;
36897;PMS5003;22827;53.108;-6.738;2023-09-07T09:09:31;8;8;
36897;PMS5003;22827;53.108;-6.738;2023-09-07T09:12:06;8;8;
36897;PMS5003;22827;53.108;-6.738;2023-09-07T09:14:33;7;5;
36897;PMS5003;22827;53.108;-6.738;2023-09-07T09:17:01;6;6;
36897;PMS5003;22827;53.108;-6.738;2023-09-07T09:19:31;7;7;
36897;PMS5003;22827;53.108;-6.738;2023-09-07T09:21:59;5;5;
36897;PMS5003;22827;53.108;-6.738;2023-09-07T09:24:27;9;8;
36897;PMS5003;22827;53.108;-6.738;2023-09-07T09:26:58;6;6;
36897;PMS5003;22827;53.108;-6.738;2023-09-07T09:29:25;16;10;
36897;PMS5003;22827;53.108;-6.738;2023-09-07T09:31:52;8;7;
36897;PMS5003;22827;53.108;-6.738;2023-09-07T09:34:19;8;6;
36897;PMS5003;22827;53.108;-6.738;2023-09-07T09:36:47;6;6;
36897;PMS5003;22827;53.108;-6.738;2023-09-07T09:39:22;16;14;
36897;PMS5003;22827;53.108;-6.738;2023-09-07T09:41:49;7;7;
36897;PMS5003;22827;53.108;-6.738;2023-09-07T09:44:17;10;8;
36897;PMS5003;22827;53.108;-6.738;2023-09-07T09:46:47;11;9;
36897;PMS5003;22827;53.108;-6.738;2023-09-07T09:49:15;12;11;
36897;PMS5003;22827;53.108;-6.738;2023-09-07T09:51:44;10;10;
36897;PMS5003;22827;53.108;-6.738;2023-09-07T09:54:14;11;9;
36897;PMS5003;22827;53.108;-6.738;2023-09-07T09:56:42;10;9;
36897;PMS5003;22827;53.108;-6.738;2023-09-07T09:59:10;10;10;
36897;PMS5003;22827;53.108;-6.738;2023-09-07T10:01:38;12;10;
36897;PMS5003;22827;53.108;-6.738;2023-09-07T10:04:09;13;9;
36897;PMS5003;22827;53.108;-6.738;2023-09-07T10:06:49;12;8;
36897;PMS5003;22827;53.108;-6.738;2023-09-07T10:09:17;15;12;
36897;PMS5003;22827;53.108;-6.738;2023-09-07T10:11:50;10;8;
36897;PMS5003;22827;53.108;-6.738;2023-09-07T10:14:18;13;11;
36897;PMS5003;22827;53.108;-6.738;2023-09-07T10:16:46;17;14;
36897;PMS5003;22827;53.108;-6.738;2023-09-07T10:19:15;12;10;
36897;PMS5003;22827;53.108;-6.738;2023-09-07T10:21:42;15;14;
36897;PMS5003;22827;53.108;-6.738;2023-09-07T10:24:10;18;14;
36897;PMS5003;22827;53.108;-6.738;2023-09-07T10:26:37;21;17;
36897;PMS5003;22827;53.108;-6.738;2023-09-07T10:29:04;17;13;
36897;PMS5003;22827;53.108;-6.738;2023-09-07T10:31:32;14;14;
36897;PMS5003;22827;53.108;-6.738;2023-09-07T10:34:14;14;12;
36897;PMS5003;22827;53.108;-6.738;2023-09-07T10:36:41;16;12;
36897;PMS5003;22827;53.108;-6.738;2023-09-07T10:39:09;17;11;
36897;PMS5003;22827;53.108;-6.738;2023-09-07T10:41:39;16;14;
36897;PMS5003;22827;53.108;-6.738;2023-09-07T10:44:07;15;14;
36897;PMS5003;22827;53.108;-6.738;2023-09-07T10:46:35;15;14;
36897;PMS5003;22827;53.108;-6.738;2023-09-07T10:49:05;17;14;
36897;PMS5003;22827;53.108;-6.738;2023-09-07T10:51:39;17;16;
36897;PMS5003;22827;53.108;-6.738;2023-09-07T10:54:13;13;11;
36897;PMS5003;22827;53.108;-6.738;2023-09-07T10:56:42;19;15;
36897;PMS5003;22827;53.108;-6.738;2023-09-07T10:59:11;20;15;
36897;PMS5003;22827;53.108;-6.738;2023-09-07T11:01:39;16;14;
36897;PMS5003;22827;53.108;-6.738;2023-09-07T11:04:15;18;14;
36897;PMS5003;22827;53.108;-6.738;2023-09-07T11:06:43;18;13;
36897;PMS5003;22827;53.108;-6.738;2023-09-07T11:09:10;17;15;
36897;PMS5003;22827;53.108;-6.738;2023-09-07T11:11:37;17;16;
36897;PMS5003;22827;53.108;-6.738;2023-09-07T11:14:05;16;16;
36897;PMS5003;22827;53.108;-6.738;2023-09-07T11:16:32;17;13;
36897;PMS5003;22827;53.108;-6.738;2023-09-07T11:19:03;15;13;
36897;PMS5003;22827;53.108;-6.738;2023-09-07T11:21:30;20;18;
36897;PMS5003;22827;53.108;-6.738;2023-09-07T11:23:58;12;12;
36897;PMS5003;22827;53.108;-6.738;2023-09-07T11:26:25;21;17;
36897;PMS5003;22827;53.108;-6.738;2023-09-07T11:28:52;12;12;
36897;PMS5003;22827;53.108;-6.738;2023-09-07T11:31:19;16;16;
36897;PMS5003;22827;53.108;-6.738;2023-09-07T11:33:47;18;16;
36897;PMS5003;22827;53.108;-6.738;2023-09-07T11:36:15;16;15;
36897;PMS5003;22827;53.108;-6.738;2023-09-07T11:38:42;12;12;
36897;PMS5003;22827;53.108;-6.738;2023-09-07T11:41:10;18;18;
36897;PMS5003;22827;53.108;-6.738;2023-09-07T11:43:36;18;15;
36897;PMS5003;22827;53.108;-6.738;2023-09-07T11:46:04;14;12;
36897;PMS5003;22827;53.108;-6.738;2023-09-07T11:48:32;16;16;
36897;PMS5003;22827;53.108;-6.738;2023-09-07T11:50:59;13;12;
36897;PMS5003;22827;53.108;-6.738;2023-09-07T11:53:27;14;13;
36897;PMS5003;22827;53.108;-6.738;2023-09-07T11:55:55;14;12;
36897;PMS5003;22827;53.108;-6.738;2023-09-07T11:58:23;16;13;
36897;PMS5003;22827;53.108;-6.738;2023-09-07T12:00:50;13;12;
36897;PMS5003;22827;53.108;-6.738;2023-09-07T12:03:18;13;12;
36897;PMS5003;22827;53.108;-6.738;2023-09-07T12:05:45;17;15;
36897;PMS5003;22827;53.108;-6.738;2023-09-07T12:08:13;10;8;
36897;PMS5003;22827;53.108;-6.738;2023-09-07T12:10:40;9;7;
36897;PMS5003;22827;53.108;-6.738;2023-09-07T12:13:08;9;7;
36897;PMS5003;22827;53.108;-6.738;2023-09-07T12:15:35;8;7;
36897;PMS5003;22827;53.108;-6.738;2023-09-07T12:18:03;8;6;
36897;PMS5003;22827;53.108;-6.738;2023-09-07T12:20:30;8;7;
36897;PMS5003;22827;53.108;-6.738;2023-09-07T12:22:57;6;6;
36897;PMS5003;22827;53.108;-6.738;2023-09-07T12:25:24;6;6;
36897;PMS5003;22827;53.108;-6.738;2023-09-07T12:27:51;7;5;
36897;PMS5003;22827;53.108;-6.738;2023-09-07T12:30:18;7;7;
36897;PMS5003;22827;53.108;-6.738;2023-09-07T12:32:46;7;7;
36897;PMS5003;22827;53.108;-6.738;2023-09-07T12:35:13;8;8;
36897;PMS5003;22827;53.108;-6.738;2023-09-07T12:37:41;10;9;
36897;PMS5003;22827;53.108;-6.738;2023-09-07T12:40:09;6;6;
36897;PMS5003;22827;53.108;-6.738;2023-09-07T12:42:38;7;6;
36897;PMS5003;22827;53.108;-6.738;2023-09-07T12:45:06;6;6;
36897;PMS5003;22827;53.108;-6.738;2023-09-07T12:47:34;11;8;
36897;PMS5003;22827;53.108;-6.738;2023-09-07T12:50:02;6;5;
36897;PMS5003;22827;53.108;-6.738;2023-09-07T12:52:29;9;6;
36897;PMS5003;22827;53.108;-6.738;2023-09-07T12:54:57;7;6;
36897;PMS5003;22827;53.108;-6.738;2023-09-07T12:57:24;6;6;
36897;PMS5003;22827;53.108;-6.738;2023-09-07T12:59:51;8;8;
36897;PMS5003;22827;53.108;-6.738;2023-09-07T13:02:18;7;7;
36897;PMS5003;22827;53.108;-6.738;2023-09-07T13:04:45;7;6;
36897;PMS5003;22827;53.108;-6.738;2023-09-07T13:07:13;8;7;
36897;PMS5003;22827;53.108;-6.738;2023-09-07T13:09:42;8;8;
36897;PMS5003;22827;53.108;-6.738;2023-09-07T13:12:09;7;7;
36897;PMS5003;22827;53.108;-6.738;2023-09-07T13:14:37;9;8;
36897;PMS5003;22827;53.108;-6.738;2023-09-07T13:17:04;8;7;
36897;PMS5003;22827;53.108;-6.738;2023-09-07T13:19:32;9;7;
36897;PMS5003;22827;53.108;-6.738;2023-09-07T13:21:59;9;7;
36897;PMS5003;22827;53.108;-6.738;2023-09-07T13:24:27;7;6;
36897;PMS5003;22827;53.108;-6.738;2023-09-07T13:26:54;9;8;
36897;PMS5003;22827;53.108;-6.738;2023-09-07T13:29:22;6;6;
36897;PMS5003;22827;53.108;-6.738;2023-09-07T13:31:49;9;7;
36897;PMS5003;22827;53.108;-6.738;2023-09-07T13:34:17;7;7;
36897;PMS5003;22827;53.108;-6.738;2023-09-07T13:36:44;10;7;
36897;PMS5003;22827;53.108;-6.738;2023-09-07T13:39:12;9;9;
36897;PMS5003;22827;53.108;-6.738;2023-09-07T13:41:39;8;8;
36897;PMS5003;22827;53.108;-6.738;2023-09-07T13:44:07;9;7;
36897;PMS5003;22827;53.108;-6.738;2023-09-07T13:46:34;14;9;
36897;PMS5003;22827;53.108;-6.738;2023-09-07T13:49:02;7;5;
36897;PMS5003;22827;53.108;-6.738;2023-09-07T13:51:29;10;9;
36897;PMS5003;22827;53.108;-6.738;2023-09-07T13:53:56;10;6;
36897;PMS5003;22827;53.108;-6.738;2023-09-07T13:56:22;8;7;
36897;PMS5003;22827;53.108;-6.738;2023-09-07T13:58:50;9;8;
36897;PMS5003;22827;53.108;-6.738;2023-09-07T14:01:17;9;8;
36897;PMS5003;22827;53.108;-6.738;2023-09-07T14:03:45;11;9;
36897;PMS5003;22827;53.108;-6.738;2023-09-07T14:06:12;12;11;
36897;PMS5003;22827;53.108;-6.738;2023-09-07T14:08:40;7;7;
36897;PMS5003;22827;53.108;-6.738;2023-09-07T14:11:07;13;10;
36897;PMS5003;22827;53.108;-6.738;2023-09-07T14:13:35;9;8;
36897;PMS5003;22827;53.108;-6.738;2023-09-07T14:16:02;9;9;
36897;PMS5003;22827;53.108;-6.738;2023-09-07T14:18:30;7;7;
36897;PMS5003;22827;53.108;-6.738;2023-09-07T14:20:57;13;11;
36897;PMS5003;22827;53.108;-6.738;2023-09-07T14:23:25;10;9;
36897;PMS5003;22827;53.108;-6.738;2023-09-07T14:25:53;10;10;
36897;PMS5003;22827;53.108;-6.738;2023-09-07T14:28:21;8;8;
36897;PMS5003;22827;53.108;-6.738;2023-09-07T14:30:48;11;8;
36897;PMS5003;22827;53.108;-6.738;2023-09-07T14:33:15;12;11;
36897;PMS5003;22827;53.108;-6.738;2023-09-07T14:35:42;10;9;
36897;PMS5003;22827;53.108;-6.738;2023-09-07T14:38:10;9;8;
36897;PMS5003;22827;53.108;-6.738;2023-09-07T14:40:37;11;9;
36897;PMS5003;22827;53.108;-6.738;2023-09-07T14:43:05;10;8;
36897;PMS5003;22827;53.108;-6.738;2023-09-07T14:45:32;7;6;
36897;PMS5003;22827;53.108;-6.738;2023-09-07T14:47:59;11;10;
36897;PMS5003;22827;53.108;-6.738;2023-09-07T14:50:26;9;8;
36897;PMS5003;22827;53.108;-6.738;2023-09-07T14:52:53;8;7;
36897;PMS5003;22827;53.108;-6.738;2023-09-07T14:55:21;9;7;
36897;PMS5003;22827;53.108;-6.738;2023-09-07T14:57:48;10;8;
36897;PMS5003;22827;53.108;-6.738;2023-09-07T15:00:16;6;5;
36897;PMS5003;22827;53.108;-6.738;2023-09-07T15:02:43;9;7;
36897;PMS5003;22827;53.108;-6.738;2023-09-07T15:05:11;7;6;
36897;PMS5003;22827;53.108;-6.738;2023-09-07T15:07:38;9;8;
36897;PMS5003;22827;53.108;-6.738;2023-09-07T15:10:06;8;8;
36897;PMS5003;22827;53.108;-6.738;2023-09-07T15:12:33;11;9;
36897;PMS5003;22827;53.108;-6.738;2023-09-07T15:15:00;11;8;
36897;PMS5003;22827;53.108;-6.738;2023-09-07T15:17:27;8;6;
36897;PMS5003;22827;53.108;-6.738;2023-09-07T15:19:55;11;9;
36897;PMS5003;22827;53.108;-6.738;2023-09-07T15:22:22;9;8;
36897;PMS5003;22827;53.108;-6.738;2023-09-07T15:24:50;7;7;
36897;PMS5003;22827;53.108;-6.738;2023-09-07T15:27:17;12;7;
36897;PMS5003;22827;53.108;-6.738;2023-09-07T15:29:43;8;8;
36897;PMS5003;22827;53.108;-6.738;2023-09-07T15:32:11;9;7;
36897;PMS5003;22827;53.108;-6.738;2023-09-07T15:34:38;10;8;
36897;PMS5003;22827;53.108;-6.738;2023-09-07T15:37:06;8;8;
36897;PMS5003;22827;53.108;-6.738;2023-09-07T15:39:33;11;10;
36897;PMS5003;22827;53.108;-6.738;2023-09-07T15:42:00;7;6;
36897;PMS5003;22827;53.108;-6.738;2023-09-07T15:44:26;10;10;
36897;PMS5003;22827;53.108;-6.738;2023-09-07T15:46:55;8;8;
36897;PMS5003;22827;53.108;-6.738;2023-09-07T15:49:22;10;7;
36897;PMS5003;22827;53.108;-6.738;2023-09-07T15:51:50;12;10;
36897;PMS5003;22827;53.108;-6.738;2023-09-07T15:54:16;11;9;
36897;PMS5003;22827;53.108;-6.738;2023-09-07T15:56:44;12;7;
36897;PMS5003;22827;53.108;-6.738;2023-09-07T15:59:12;10;8;
36897;PMS5003;22827;53.108;-6.738;2023-09-07T16:01:39;13;10;
36897;PMS5003;22827;53.108;-6.738;2023-09-07T16:04:07;12;10;
36897;PMS5003;22827;53.108;-6.738;2023-09-07T16:06:34;14;12;
36897;PMS5003;22827;53.108;-6.738;2023-09-07T16:09:01;14;8;
36897;PMS5003;22827;53.108;-6.738;2023-09-07T16:11:29;11;9;
36897;PMS5003;22827;53.108;-6.738;2023-09-07T16:13:56;6;6;
36897;PMS5003;22827;53.108;-6.738;2023-09-07T16:16:23;12;11;
36897;PMS5003;22827;53.108;-6.738;2023-09-07T16:18:51;9;9;
36897;PMS5003;22827;53.108;-6.738;2023-09-07T16:21:18;9;7;
36897;PMS5003;22827;53.108;-6.738;2023-09-07T16:23:46;8;8;
36897;PMS5003;22827;53.108;-6.738;2023-09-07T16:26:16;9;7;
36897;PMS5003;22827;53.108;-6.738;2023-09-07T16:28:43;11;9;